createdAt,value
2022-10-01T00:01:43.163Z,25.15
2022-10-01T00:04:28.803Z,22.20
2022-10-01T00:07:15.341Z,23.20
2022-10-01T00:10:00.887Z,26.83
2022-10-01T00:12:48.907Z,35.47
2022-10-01T00:15:35.587Z,23.67
2022-10-01T00:18:21.131Z,24.70
2022-10-01T00:21:08.285Z,20.90
2022-10-01T00:23:55.694Z,19.17
2022-10-01T00:26:43.519Z,16.83
2022-10-01T00:29:29.287Z,19.85
2022-10-01T00:32:15.673Z,20.63
2022-10-01T00:35:09.444Z,11.32
2022-10-01T00:37:54.904Z,12.90
2022-10-01T00:40:40.380Z,13.35
2022-10-01T00:43:28.639Z,15.90
2022-10-01T00:46:22.507Z,13.55
2022-10-01T00:49:11.841Z,14.57
2022-10-01T00:52:02.351Z,20.00
2022-10-01T00:54:59.513Z,22.42
2022-10-01T00:57:45.772Z,20.52
2022-10-01T01:00:32.649Z,19.80
2022-10-01T01:03:18.059Z,20.20
2022-10-01T01:06:03.469Z,11.57
2022-10-01T01:08:55.078Z,16.17
2022-10-01T01:12:30.620Z,10.52
2022-10-01T01:15:53.367Z,14.30
2022-10-01T01:18:52.152Z,11.35
2022-10-01T01:21:44.290Z,16.02
2022-10-01T01:24:55.857Z,12.93
2022-10-01T01:27:50.583Z,11.68
2022-10-01T01:30:38.456Z,15.37
2022-10-01T01:33:26.039Z,8.68
2022-10-01T01:36:17.903Z,11.15
2022-10-01T01:39:07.038Z,10.43
2022-10-01T01:41:58.204Z,9.85
2022-10-01T01:44:46.527Z,10.93
2022-10-01T01:47:34.464Z,7.88
2022-10-01T01:50:19.758Z,14.60
2022-10-01T01:53:07.808Z,7.88
2022-10-01T01:55:56.315Z,9.93
2022-10-01T01:58:44.615Z,8.07
2022-10-01T02:01:41.892Z,10.80
2022-10-01T02:04:49.327Z,8.23
2022-10-01T02:08:02.533Z,10.10
2022-10-01T02:10:59.497Z,7.22
2022-10-01T02:14:01.411Z,7.13
2022-10-01T02:17:01.482Z,7.72
2022-10-01T02:20:07.474Z,9.38
2022-10-01T02:23:15.616Z,8.02
2022-10-01T02:26:06.936Z,8.82
2022-10-01T02:28:57.352Z,7.80
2022-10-01T02:31:42.847Z,10.65
2022-10-01T02:34:30.260Z,8.90
2022-10-01T02:37:21.320Z,9.88
2022-10-01T02:40:09.872Z,8.75
2022-10-01T02:43:03.380Z,9.88
2022-10-01T02:45:55.439Z,10.73
2022-10-01T02:48:40.827Z,9.48
2022-10-01T02:51:48.133Z,9.23
2022-10-01T02:54:52.271Z,10.55
2022-10-01T02:57:38.321Z,8.18
2022-10-01T03:00:26.987Z,9.65
2022-10-01T03:03:12.480Z,11.88
2022-10-01T03:05:58.108Z,11.90
2022-10-01T03:08:48.655Z,9.65
2022-10-01T03:11:34.538Z,9.88
2022-10-01T03:14:20.339Z,10.82
2022-10-01T03:17:07.300Z,9.10
2022-10-01T03:19:56.278Z,8.65
2022-10-01T03:22:44.980Z,11.05
2022-10-01T03:25:30.226Z,8.10
2022-10-01T03:28:18.720Z,11.75
2022-10-01T03:31:08.681Z,8.18
2022-10-01T03:33:54.240Z,7.72
2022-10-01T03:36:39.785Z,8.32
2022-10-01T03:39:25.376Z,7.90
2022-10-01T03:42:10.735Z,7.30
2022-10-01T03:44:58.248Z,8.60
2022-10-01T03:47:43.788Z,8.18
2022-10-01T03:50:29.319Z,5.75
2022-10-01T03:53:14.824Z,7.30
2022-10-01T03:56:00.427Z,6.45
2022-10-01T03:58:45.683Z,6.32
2022-10-01T04:01:31.812Z,5.53
2022-10-01T04:04:19.602Z,7.43
2022-10-01T04:07:06.015Z,8.20
2022-10-01T04:09:51.540Z,7.40
2022-10-01T04:12:37.078Z,6.82
2022-10-01T04:15:23.116Z,6.75
2022-10-01T04:18:09.087Z,7.32
2022-10-01T04:20:54.443Z,9.25
2022-10-01T04:23:39.746Z,8.50
2022-10-01T04:26:25.152Z,6.57
2022-10-01T04:29:10.787Z,9.65
2022-10-01T04:31:58.117Z,6.00
2022-10-01T04:34:52.733Z,9.50
2022-10-01T04:37:38.656Z,8.63
2022-10-01T04:40:24.195Z,6.28
2022-10-01T04:43:11.120Z,5.30
2022-10-01T04:45:59.581Z,4.82
2022-10-01T04:48:48.063Z,6.80
2022-10-01T04:51:33.750Z,6.50
2022-10-01T04:54:19.321Z,6.38
2022-10-01T04:57:04.533Z,9.60
2022-10-01T04:59:53.673Z,5.47
2022-10-01T05:02:39.147Z,5.72
2022-10-01T05:05:29.850Z,9.35
2022-10-01T05:08:15.276Z,8.48
2022-10-01T05:11:00.840Z,14.05
2022-10-01T05:13:45.967Z,9.77
2022-10-01T05:16:31.436Z,12.35
2022-10-01T05:19:17.599Z,12.45
2022-10-01T05:22:02.769Z,8.18
2022-10-01T05:24:48.129Z,12.35
2022-10-01T05:27:37.994Z,14.63
2022-10-01T05:30:25.959Z,13.35
2022-10-01T05:33:11.382Z,15.18
2022-10-01T05:35:59.962Z,13.60
2022-10-01T05:38:48.305Z,21.48
2022-10-01T05:41:33.874Z,16.08
2022-10-01T05:44:19.724Z,14.05
2022-10-01T05:47:06.707Z,12.75
2022-10-01T05:49:52.507Z,16.60
2022-10-01T05:52:44.010Z,11.32
2022-10-01T05:55:34.678Z,15.38
2022-10-01T05:58:20.020Z,11.57
2022-10-01T06:01:05.915Z,16.50
2022-10-01T06:03:52.527Z,17.55
2022-10-01T06:06:37.930Z,21.40
2022-10-01T06:09:23.466Z,12.48
2022-10-01T06:12:09.725Z,17.02
2022-10-01T06:14:55.174Z,17.30
2022-10-01T06:17:44.881Z,17.05
2022-10-01T06:20:30.611Z,20.17
2022-10-01T06:23:16.007Z,14.95
2022-10-01T06:26:08.595Z,19.52
2022-10-01T06:28:54.128Z,20.85
2022-10-01T06:31:39.875Z,23.20
2022-10-01T06:34:26.419Z,17.27
2022-10-01T06:37:11.875Z,16.92
2022-10-01T06:39:57.090Z,14.30
2022-10-01T06:42:53.754Z,19.00
2022-10-01T06:45:42.897Z,14.23
2022-10-01T06:48:31.363Z,16.25
2022-10-01T06:51:36.749Z,23.80
2022-10-01T06:57:07.562Z,16.70
2022-10-01T06:59:53.383Z,19.73
2022-10-01T07:02:42.322Z,12.55
2022-10-01T07:05:33.758Z,20.48
2022-10-01T07:08:19.597Z,15.68
2022-10-01T07:11:05.188Z,15.00
2022-10-01T07:13:54.322Z,14.70
2022-10-01T07:16:40.060Z,13.95
2022-10-01T07:19:25.305Z,16.33
2022-10-01T07:22:10.908Z,15.40
2022-10-01T07:24:56.542Z,10.25
2022-10-01T07:27:42.169Z,13.40
2022-10-01T07:30:29.476Z,13.55
2022-10-01T07:33:18.261Z,16.08
2022-10-01T07:36:06.339Z,21.30
2022-10-01T07:38:51.922Z,18.45
2022-10-01T07:41:37.589Z,19.10
2022-10-01T07:44:23.267Z,21.20
2022-10-01T07:47:08.801Z,10.30
2022-10-01T07:49:57.366Z,20.55
2022-10-01T07:52:50.129Z,16.55
2022-10-01T07:55:36.374Z,23.67
2022-10-01T07:58:24.006Z,24.52
2022-10-01T08:01:09.641Z,21.42
2022-10-01T08:03:56.749Z,21.15
2022-10-01T08:06:42.616Z,23.55
2022-10-01T08:09:28.142Z,22.60
2022-10-01T08:12:13.511Z,23.95
2022-10-01T08:14:58.753Z,18.60
2022-10-01T08:17:45.147Z,22.73
2022-10-01T08:20:30.699Z,18.95
2022-10-01T08:23:17.358Z,21.27
2022-10-01T08:26:11.689Z,17.40
2022-10-01T08:28:57.638Z,18.48
2022-10-01T08:31:42.896Z,18.48
2022-10-01T08:34:28.669Z,19.73
2022-10-01T08:37:15.879Z,20.00
2022-10-01T08:40:01.632Z,17.98
2022-10-01T08:42:54.488Z,15.90
2022-10-01T08:45:47.585Z,17.00
2022-10-01T08:48:57.283Z,17.17
2022-10-01T08:51:59.457Z,21.13
2022-10-01T08:55:08.644Z,17.15
2022-10-01T08:58:11.856Z,16.25
2022-10-01T09:00:57.604Z,18.35
2022-10-01T09:03:43.100Z,12.80
2022-10-01T09:06:29.196Z,16.05
2022-10-01T09:09:45.443Z,19.02
2022-10-01T09:12:53.928Z,20.08
2022-10-01T09:16:11.188Z,16.17
2022-10-01T09:19:06.869Z,18.65
2022-10-01T09:22:11.096Z,19.75
2022-10-01T09:25:11.541Z,22.10
2022-10-01T09:28:18.951Z,15.73
2022-10-01T09:31:24.777Z,18.77
2022-10-01T09:34:16.587Z,16.83
2022-10-01T09:37:16.824Z,16.55
2022-10-01T09:40:20.808Z,19.95
2022-10-01T09:43:08.172Z,13.45
2022-10-01T09:45:53.519Z,17.08
2022-10-01T09:48:59.164Z,18.05
2022-10-01T09:51:48.520Z,22.67
2022-10-01T09:54:58.854Z,17.58
2022-10-01T09:57:46.467Z,13.43
2022-10-01T10:00:32.410Z,18.75
2022-10-01T10:03:28.679Z,20.15
2022-10-01T10:06:15.165Z,17.20
2022-10-01T10:09:02.033Z,16.25
2022-10-01T10:11:49.052Z,20.55
2022-10-01T10:14:38.843Z,16.67
2022-10-01T10:17:28.267Z,16.05
2022-10-01T10:20:35.969Z,14.20
2022-10-01T10:23:26.431Z,25.75
2022-10-01T10:26:20.354Z,16.23
2022-10-01T10:29:09.456Z,17.63
2022-10-01T10:31:55.491Z,13.93
2022-10-01T10:34:46.996Z,13.68
2022-10-01T10:37:36.719Z,15.23
2022-10-01T10:40:29.232Z,16.02
2022-10-01T10:43:29.269Z,12.60
2022-10-01T10:46:22.907Z,12.57
2022-10-01T10:49:15.098Z,15.48
2022-10-01T10:52:02.569Z,17.30
2022-10-01T10:54:49.937Z,12.38
2022-10-01T10:57:36.583Z,11.68
2022-10-01T11:00:26.380Z,9.93
2022-10-01T11:03:21.344Z,20.08
2022-10-01T11:06:12.420Z,17.15
2022-10-01T11:09:07.060Z,19.13
2022-10-01T11:12:07.326Z,16.23
2022-10-01T11:15:26.891Z,15.60
2022-10-01T11:18:24.455Z,18.50
2022-10-01T11:21:53.265Z,19.60
2022-10-01T11:25:03.957Z,11.50
2022-10-01T11:28:07.602Z,20.05
2022-10-01T11:31:24.745Z,17.88
2022-10-01T11:34:10.256Z,17.80
2022-10-01T11:37:17.886Z,17.95
2022-10-01T11:40:17.781Z,13.55
2022-10-01T11:43:27.913Z,15.38
2022-10-01T11:46:27.270Z,10.63
2022-10-01T11:49:15.594Z,16.40
2022-10-01T11:52:10.073Z,12.15
2022-10-01T11:55:24.554Z,12.63
2022-10-01T11:58:38.030Z,21.27
2022-10-01T12:01:47.467Z,17.67
2022-10-01T12:04:35.199Z,13.68
2022-10-01T12:07:26.914Z,19.98
2022-10-01T12:10:40.565Z,15.45
2022-10-01T12:13:33.075Z,7.85
2022-10-01T12:16:40.009Z,12.15
2022-10-01T12:19:34.354Z,11.52
2022-10-01T12:22:38.246Z,15.05
2022-10-01T12:25:31.292Z,15.00
2022-10-01T12:28:23.975Z,12.68
2022-10-01T12:31:16.319Z,13.05
2022-10-01T12:34:33.456Z,12.48
2022-10-01T12:37:34.859Z,16.30
2022-10-01T12:40:33.739Z,18.27
2022-10-01T12:43:20.880Z,18.52
2022-10-01T12:46:42.848Z,16.10
2022-10-01T12:49:41.291Z,11.75
2022-10-01T12:52:26.837Z,10.55
2022-10-01T12:55:39.405Z,14.07
2022-10-01T12:58:49.184Z,10.30
2022-10-01T13:01:47.449Z,13.50
2022-10-01T13:04:51.195Z,12.98
2022-10-01T13:07:52.759Z,10.90
2022-10-01T13:10:48.695Z,13.77
2022-10-01T13:13:34.679Z,10.27
2022-10-01T13:16:42.220Z,6.95
2022-10-01T13:19:54.298Z,11.43
2022-10-01T13:22:44.315Z,11.68
2022-10-01T13:25:51.000Z,14.63
2022-10-01T13:28:58.215Z,17.60
2022-10-01T13:32:01.772Z,11.48
2022-10-01T13:34:47.056Z,14.18
2022-10-01T13:37:40.009Z,15.60
2022-10-01T13:40:33.498Z,11.77
2022-10-01T13:43:22.103Z,13.00
2022-10-01T13:46:10.946Z,8.55
2022-10-01T13:48:59.160Z,10.52
2022-10-01T13:51:46.067Z,13.27
2022-10-01T13:54:50.331Z,12.85
2022-10-01T13:57:42.576Z,12.80
2022-10-01T14:00:28.142Z,13.65
2022-10-01T14:03:34.341Z,15.82
2022-10-01T14:06:28.403Z,10.98
2022-10-01T14:09:31.259Z,10.85
2022-10-01T14:12:50.981Z,13.88
2022-10-01T14:15:59.836Z,20.60
2022-10-01T14:18:49.415Z,13.93
2022-10-01T14:22:12.553Z,18.48
2022-10-01T14:25:07.457Z,11.05
2022-10-01T14:27:58.583Z,18.70
2022-10-01T14:31:14.501Z,13.18
2022-10-01T14:37:07.048Z,13.18
2022-10-01T14:40:23.483Z,16.58
2022-10-01T14:43:23.459Z,13.88
2022-10-01T14:46:26.756Z,8.75
2022-10-01T14:49:30.142Z,13.32
2022-10-01T14:52:25.827Z,15.98
2022-10-01T14:55:17.791Z,12.25
2022-10-01T14:58:05.089Z,12.93
2022-10-01T15:00:54.613Z,13.00
2022-10-01T15:03:43.558Z,12.68
2022-10-01T15:06:30.232Z,10.75
2022-10-01T15:09:18.624Z,8.88
2022-10-01T15:12:05.854Z,18.88
2022-10-01T15:14:55.378Z,11.27
2022-10-01T15:17:45.125Z,14.20
2022-10-01T15:20:30.486Z,10.93
2022-10-01T15:23:15.756Z,11.05
2022-10-01T15:26:05.079Z,9.30
2022-10-01T15:29:00.883Z,15.15
2022-10-01T15:31:51.491Z,12.23
2022-10-01T15:34:38.855Z,13.30
2022-10-01T15:37:31.423Z,11.93
2022-10-01T15:40:30.251Z,22.63
2022-10-01T15:43:32.380Z,17.05
2022-10-01T15:46:22.316Z,12.88
2022-10-01T15:49:11.569Z,15.00
2022-10-01T15:52:19.800Z,16.30
2022-10-01T15:55:12.535Z,12.85
2022-10-01T15:58:22.322Z,18.27
2022-10-01T16:01:39.126Z,16.35
2022-10-01T16:04:24.581Z,17.98
2022-10-01T16:07:25.473Z,16.75
2022-10-01T16:10:39.831Z,24.90
2022-10-01T16:13:38.910Z,15.00
2022-10-01T16:16:29.679Z,14.45
2022-10-01T16:19:33.430Z,16.27
2022-10-01T16:22:28.667Z,16.10
2022-10-01T16:25:22.787Z,16.75
2022-10-01T16:28:29.877Z,15.05
2022-10-01T16:31:17.895Z,13.95
2022-10-01T16:34:09.013Z,20.92
2022-10-01T16:36:54.163Z,17.60
2022-10-01T16:39:39.531Z,18.92
2022-10-01T16:42:24.925Z,19.23
2022-10-01T16:45:17.738Z,17.58
2022-10-01T16:48:13.142Z,13.23
2022-10-01T16:50:59.361Z,19.95
2022-10-01T16:53:44.606Z,18.88
2022-10-01T16:56:30.167Z,13.68
2022-10-01T16:59:15.858Z,18.48
2022-10-01T17:02:02.365Z,21.00
2022-10-01T17:04:47.581Z,16.70
2022-10-01T17:07:39.214Z,18.35
2022-10-01T17:10:24.880Z,23.15
2022-10-01T17:13:11.675Z,15.45
2022-10-01T17:15:57.376Z,24.75
2022-10-01T17:18:43.832Z,19.67
2022-10-01T17:21:29.683Z,20.65
2022-10-01T17:24:15.022Z,17.67
2022-10-01T17:27:00.823Z,17.55
2022-10-01T17:29:48.063Z,17.08
2022-10-01T17:32:36.121Z,15.13
2022-10-01T17:35:21.660Z,19.85
2022-10-01T17:38:07.099Z,15.75
2022-10-01T17:40:56.398Z,21.17
2022-10-01T17:43:42.072Z,27.33
2022-10-01T17:46:29.728Z,27.13
2022-10-01T17:49:16.124Z,23.45
2022-10-01T17:52:01.751Z,18.95
2022-10-01T17:54:47.273Z,16.98
2022-10-01T17:57:33.307Z,14.93
2022-10-01T18:00:19.096Z,19.27
2022-10-01T18:03:04.630Z,21.65
2022-10-01T18:05:51.083Z,16.13
2022-10-01T18:08:54.216Z,24.05
2022-10-01T18:11:40.744Z,15.13
2022-10-01T18:14:26.103Z,14.70
2022-10-01T18:17:11.541Z,18.90
2022-10-01T18:19:57.216Z,17.38
2022-10-01T18:22:42.302Z,19.88
2022-10-01T18:25:27.923Z,15.73
2022-10-01T18:28:13.898Z,19.95
2022-10-01T18:31:16.013Z,19.35
2022-10-01T18:34:06.291Z,15.90
2022-10-01T18:37:08.011Z,13.43
2022-10-01T18:40:05.817Z,14.25
2022-10-01T18:43:13.922Z,13.70
2022-10-01T18:46:27.219Z,17.65
2022-10-01T18:49:39.345Z,18.15
2022-10-01T18:52:59.316Z,13.50
2022-10-01T18:56:08.508Z,14.93
2022-10-01T18:59:09.659Z,14.73
2022-10-01T19:02:19.939Z,16.15
2022-10-01T19:05:24.804Z,13.52
2022-10-01T19:08:28.969Z,15.63
2022-10-01T19:11:22.992Z,19.73
2022-10-01T19:14:27.403Z,14.13
2022-10-01T19:17:34.116Z,21.60
2022-10-01T19:20:45.797Z,11.20
2022-10-01T19:23:49.848Z,23.17
2022-10-01T19:27:03.894Z,13.50
2022-10-01T19:30:22.095Z,18.02
2022-10-01T19:33:10.520Z,26.38
2022-10-01T19:35:59.600Z,21.65
2022-10-01T19:38:46.717Z,25.63
2022-10-01T19:41:40.867Z,17.02
2022-10-01T19:45:07.752Z,21.67
2022-10-01T19:48:26.892Z,19.02
2022-10-01T19:51:17.328Z,20.15
2022-10-01T19:54:03.330Z,24.38
2022-10-01T19:56:54.567Z,23.75
2022-10-01T19:59:41.127Z,24.77
2022-10-01T20:02:35.100Z,21.73
2022-10-01T20:05:29.827Z,19.73
2022-10-01T20:08:28.874Z,20.57
2022-10-01T20:11:27.993Z,22.70
2022-10-01T20:14:59.921Z,22.77
2022-10-01T20:18:01.149Z,18.35
2022-10-01T20:20:49.582Z,23.67
2022-10-01T20:23:47.149Z,28.30
2022-10-01T20:26:45.851Z,22.50
2022-10-01T20:29:46.868Z,21.25
2022-10-01T20:32:36.739Z,19.90
2022-10-01T20:35:32.416Z,22.08
2022-10-01T20:38:27.238Z,19.02
2022-10-01T20:41:16.504Z,21.23
2022-10-01T20:44:05.792Z,24.25
2022-10-01T20:46:59.674Z,23.70
2022-10-01T20:49:52.312Z,29.52
2022-10-01T20:52:41.270Z,26.88
2022-10-01T20:55:38.737Z,25.63
2022-10-01T20:58:28.969Z,20.38
2022-10-01T21:01:27.097Z,28.17
2022-10-01T21:04:22.344Z,24.65
2022-10-01T21:07:29.950Z,33.35
2022-10-01T21:10:29.150Z,34.58
2022-10-01T21:13:23.594Z,31.15
2022-10-01T21:16:44.467Z,24.60
2022-10-01T21:19:48.329Z,34.00
2022-10-01T21:22:41.679Z,31.02
2022-10-01T21:25:42.544Z,42.85
2022-10-01T21:29:05.968Z,37.20
2022-10-01T21:32:06.926Z,37.03
2022-10-01T21:35:41.811Z,38.35
2022-10-01T21:38:43.432Z,51.08
2022-10-01T21:41:53.493Z,34.90
2022-10-01T21:44:59.244Z,36.97
2022-10-01T21:51:28.484Z,39.10
2022-10-01T21:54:34.971Z,36.70
2022-10-01T21:57:34.443Z,44.83
2022-10-01T22:00:24.884Z,57.42
2022-10-01T22:03:29.176Z,38.67
2022-10-01T22:06:37.979Z,48.72
2022-10-01T22:09:38.515Z,28.20
2022-10-01T22:12:28.780Z,27.05
2022-10-01T22:15:25.396Z,22.23
2022-10-01T22:18:40.202Z,26.25
2022-10-01T22:21:35.368Z,17.98
2022-10-01T22:24:39.505Z,15.07
2022-10-01T22:27:35.786Z,22.77
2022-10-01T22:30:53.487Z,17.85
2022-10-01T22:33:47.228Z,13.43
2022-10-01T22:36:43.496Z,17.20
2022-10-01T22:39:34.525Z,13.75
2022-10-01T22:42:28.866Z,16.85
2022-10-01T22:45:17.292Z,15.47
2022-10-01T22:48:18.366Z,9.98
2022-10-01T22:51:19.379Z,14.18
2022-10-01T22:54:42.400Z,11.68
2022-10-01T22:57:48.911Z,27.58
2022-10-01T23:00:42.977Z,15.90
2022-10-01T23:03:36.340Z,17.40
2022-10-01T23:06:40.705Z,24.40
2022-10-01T23:10:12.247Z,25.85
2022-10-01T23:13:15.759Z,25.98
2022-10-01T23:16:19.036Z,17.23
2022-10-01T23:19:13.164Z,24.35
2022-10-01T23:22:29.311Z,21.75
2022-10-01T23:28:24.476Z,21.25
2022-10-01T23:31:16.026Z,24.45
2022-10-01T23:34:36.960Z,16.00
2022-10-01T23:37:44.949Z,9.30
2022-10-01T23:40:33.781Z,18.88
2022-10-01T23:43:48.455Z,26.48
2022-10-01T23:46:36.874Z,14.57
2022-10-01T23:49:26.446Z,14.25
2022-10-01T23:52:40.554Z,16.33
2022-10-01T23:56:09.958Z,11.27
2022-10-01T23:59:36.631Z,13.75
